»·PEaware :: AAL214 KGEG-KPDX

AAL214 :: KGEG-KPDX

FLIGHT INFORMATION

Flight Status: Arrived
Operator:
American Airlines
More flights by this operator :: More flights under this callsign
Pilot: Jim V. (20680)
Aircraft: BOEING 737-800
(B738)
More flights by this aircraft type
Origin: KGEG Spokane Intl
United States
Destination: KPDX Portland Intl
United States
More flights between these airports :: More routes between these airports
Route: +GEG3 ZEGRO YENTL HHOOD4
File this flight plan on PilotEdge
Remarks: PBN / A1B1C1D1S1S2 NAV / RNVD1E2A1 DAT / V DOF / 181005 REG / N806SB RMK / NRP
Altitude:
(Current/Filed)
38,000ft
Speed:
(Current/Filed)
459kts
Departed: 05-Oct-18 07:20 AM
Arrived: 05-Oct-18 08:09 AM
Distance/Time
Traveled:
242nm/0:48
Distance/Time
To Go:
Arrived

Flight Plot

Page will automatically refresh every two minutes.

Flight plan parsing failed; only flown route is shown


Map Options




Map Legend


Flown Route
Filed Route
Departure Airport
Arrival Airport
Navaid (VOR, NDB)
Fix

Horizontal Profiles

Position Reports

Time Latitude Longitude Heading Altitude Ground
Speed
05-Oct-18 07:09 47.625892 -117.535056 217 2360ft 0kts
05-Oct-18 07:10 47.625892 -117.535056 217 2360ft 0kts
05-Oct-18 07:11 47.625892 -117.535056 217 2360ft 0kts
05-Oct-18 07:12 47.625892 -117.535056 217 2360ft 0kts
05-Oct-18 07:13 47.625892 -117.535056 217 2360ft 0kts
05-Oct-18 07:14 47.625892 -117.535056 217 2360ft 0kts
05-Oct-18 07:15 47.626091 -117.534864 192 2360ft 3kts
05-Oct-18 07:16 47.626272 -117.534941 125 2360ft 0kts
05-Oct-18 07:17 47.626013 -117.533675 130 2359ft 7kts
05-Oct-18 07:18 47.626002 -117.530158 44 2354ft 16kts
05-Oct-18 07:19 47.630359 -117.523592 44 2343ft 27kts
05-Oct-18 07:20 47.631900 -117.519461 136 2328ft 0kts
05-Oct-18 07:21 47.631900 -117.519461 136 2328ft 0kts
05-Oct-18 07:22 47.628584 -117.522231 224 2344ft 80kts
05-Oct-18 07:23 47.597742 -117.570237 222 3919ft 207kts
05-Oct-18 07:24 47.547429 -117.640674 229 7141ft 265kts
05-Oct-18 07:25 47.500647 -117.727726 232 10651ft 293kts
05-Oct-18 07:26 47.448098 -117.826534 235 14065ft 315kts
05-Oct-18 07:27 47.395762 -117.932774 235 17437ft 329kts
05-Oct-18 07:28 47.339142 -118.041581 238 20456ft 342kts
05-Oct-18 07:29 47.283249 -118.157147 239 23153ft 356kts
05-Oct-18 07:30 47.224657 -118.278093 240 25564ft 370kts
05-Oct-18 07:31 47.163916 -118.402964 241 27728ft 384kts
05-Oct-18 07:32 47.100671 -118.532417 241 29731ft 396kts
05-Oct-18 07:33 47.037824 -118.660277 241 31924ft 394kts
05-Oct-18 07:34 46.973475 -118.790460 243 33850ft 396kts
05-Oct-18 07:35 46.909381 -118.919430 243 35931ft 387kts
05-Oct-18 07:36 46.847578 -119.043267 243 37647ft 378kts
05-Oct-18 07:37 46.784940 -119.168753 242 38139ft 398kts
05-Oct-18 07:38 46.719621 -119.299178 242 38146ft 420kts
05-Oct-18 07:39 46.662166 -119.412998 242 38138ft 418kts
05-Oct-18 07:40 46.581685 -119.571668 242 37904ft 422kts
05-Oct-18 07:41 46.513479 -119.705322 241 36901ft 417kts
05-Oct-18 07:42 46.444014 -119.840734 241 35923ft 418kts
05-Oct-18 07:43 46.374502 -119.975604 241 34935ft 420kts
05-Oct-18 07:44 46.316266 -120.088096 241 34118ft 421kts
05-Oct-18 07:45 46.234342 -120.245824 238 32983ft 414kts
05-Oct-18 07:46 46.165812 -120.376994 238 31971ft 412kts
05-Oct-18 07:47 46.109008 -120.485277 237 30862ft 408kts
05-Oct-18 07:48 46.042333 -120.611591 237 28446ft 385kts
05-Oct-18 07:49 45.981070 -120.727040 236 26283ft 369kts
05-Oct-18 07:50 45.918982 -120.843699 235 24061ft 363kts
05-Oct-18 07:51 45.860054 -120.954066 235 21978ft 344kts
05-Oct-18 07:52 45.801833 -121.062713 234 19899ft 341kts
05-Oct-18 07:53 45.745019 -121.168358 233 17891ft 333kts
05-Oct-18 07:54 45.689290 -121.271596 233 15788ft 322kts
05-Oct-18 07:55 45.637764 -121.369382 235 14024ft 301kts
05-Oct-18 07:56 45.596203 -121.470763 248 12453ft 298kts
05-Oct-18 07:57 45.566446 -121.579885 247 11110ft 288kts
05-Oct-18 07:58 45.538497 -121.680495 246 9885ft 265kts
05-Oct-18 07:59 45.530202 -121.782907 271 8706ft 267kts
05-Oct-18 08:00 45.534634 -121.885514 270 7520ft 242kts
05-Oct-18 08:01 45.538603 -121.980930 272 6734ft 230kts
05-Oct-18 08:02 45.532495 -122.064552 232 5734ft 221kts
05-Oct-18 08:03 45.500358 -122.128351 231 5690ft 176kts
05-Oct-18 08:04 45.474150 -122.189676 266 5694ft 191kts
05-Oct-18 08:05 45.479138 -122.266486 274 4939ft 195kts
05-Oct-18 08:06 45.496118 -122.342823 298 3759ft 217kts
05-Oct-18 08:07 45.524518 -122.415574 299 2531ft 195kts
05-Oct-18 08:08 45.547332 -122.473949 299 1529ft 148kts
05-Oct-18 08:09 45.566925 -122.524052 299 765ft 144kts
05-Oct-18 08:10 45.586189 -122.573546 299 32ft 138kts
05-Oct-18 08:11 45.592096 -122.591787 270 24ft 0kts
05-Oct-18 08:12 45.593019 -122.596533 288 27ft 14kts
05-Oct-18 08:13 45.591955 -122.596996 132 25ft 0kts
05-Oct-18 08:14 45.591955 -122.596996 132 25ft 0kts
05-Oct-18 08:15 45.591955 -122.596996 132 25ft 0kts

Navigation Log

Ident Type
Flight plan parsing failed, navigation log unavailable